Barbados Meteorological Services
Auto gathered TAF list
Powered by Apparatus software
For Flight WS2513
Contact Number 1-(246)-535-0021/2/3/4/5/6
WEB: http://www.barbadosweather.org

**********************************************

2018/08/18 12:36
TAF TXKF 181130Z 1812/1912 29008KT 9999 SCT020


**********************************************
2018/08/18 12:59
TAF TLPL 181300Z 1812/1912 09016KTĀ  9999 SCT025
TEMPO 1812/1824 SHRA BKN018 PROB30
TEMPO 1812/1818 5000 SHRA FEW015CB BKN017


**********************************************
2018/08/18 12:27
TAF TJSJ 181123Z 1812/1912 09005KT P6SM VCSH SCT025 BKN050 BKN090
FM181430 08012KT P6SM FEW030 SCT050 SCT250
FM181800 07015KT P6SM VCSH SCT025 SCT040
FM182300 10008KT P6SM FEW028 SCT050


**********************************************
2018/08/18 12:15
TAF TFFR 181100Z 1812/1912 12010KT 9999 SCT030
TEMPO 1822/1912 3000 SHRA SCT010CB BKN015TCU


**********************************************
2018/08/18 12:52
TAF TBPB 181100Z 1812/1912 08014KT 9999 SCT016
TEMPO 1812/1816 08016G30KT 5000 SHRA RA BKN014 SCT015CB


**********************************************
2018/08/18 12:06
TAF TAF TAPA 181100Z 1812/1912 10012KT 9999 SCT020


**********************************************
2018/08/18 15:16
TAF
AMD KPHL 181509Z 1815/1918 24010KT P6SM VCSH SCT040 BKN150
FM182100 28010KT P6SM SHRA BKN050
TEMPO 1822/1901 3SM TSRA OVC035CB
FM190100 31006KT P6SM OVC060
FM191000 03004KT 5SM BR BKN025


**********************************************
2018/08/18 14:06
TAF
AMD KORF 181405Z 1814/1912 23013KT P6SM SCT020 BKN200
TEMPO 1815/1817 BKN020
FM181700 24011KT P6SM SCT025
FM181900 25010KT P6SM BKN040
FM182200 25010KT P6SM VCSH BKN040
FM190000 24007KT P6SM VCSH OVC060
FM190600 22007KT P6SM BKN070


**********************************************
2018/08/18 15:47
TAF
AMD KJFK 181438Z 1815/1918 24010KT P6SM SCT070 BKN100
FM182100 27015G25KT 3SM TSRA BKN030CB
FM190000 33010KT 6SM SHRA BKN040
FM190200 36008KT P6SM VCSH BKN040
FM190700 02011KT P6SM VCSH BKN015
FM191500 05013KT P6SM VCSH BKN020


**********************************************
2018/08/18 15:57
KIAD 181453Z 1815/1918 26006KT P6SM SCT040 OVC250
FM181800 25007KT P6SM VCTS SCT045CB OVC200
FM190200 26004KT P6SM SCT025 OVC200
FM190600 34004KT P6SM SCT025 OVC100


**********************************************
2018/08/18 15:42
TAF
AMD KEWR 181438Z 1815/1918 24008KT P6SM SCT070 BKN100
FM182100 27015G25KT 3SM TSRA BKN030CB
FM190000 33009KT 6SM SHRA BKN040
FM190200 36008KT P6SM VCSH BKN040
FM190700 02010KT P6SM VCSH BKN015
FM191500 04010KT P6SM VCSH BKN020


**********************************************
2018/08/18 12:56
TAF KCHS 181149Z 1812/1912 23006KT P6SM SCT250
FM181600 22010KT P6SM FEW030 BKN060
FM190000 22008KT 6SM -TSRA BR BKN060CB
TEMPO 1900/1903 4SM TSRA BR
FM190400 23006KT P6SM SCT050 BKN080


**********************************************
2018/08/18 15:59
TAF
AMD KBOS 181459Z 1815/1918 25011KT P6SM FEW025 BKN130
FM181700 26011KT P6SM VCSH BKN060
FM181900 31011KT 5SM -SHRA VCTS OVC060CB
FM182300 36007KT P6SM VCSH OVC030
FM190100 02007KT P6SM OVC010
FM190900 03009KT P6SM BKN020
FM191400 04011G18KT P6SM VCSH OVC025


**********************************************
2018/08/18 15:42
TAF CYYZ 181439Z 1815/1918 05008KT P6SM SKC
FM181600 04008KT P6SM FEW020 SCT040
FM181800 04008KT P6SM BKN040
BECMG 1818/1820 12007KT
BECMG 1900/1902 VRB03KT
FM191000 04005KT P6SM FEW030
BECMG 1914/1916 10008KT
RMK NXT FCST BY 181800Z


**********************************************
2018/08/18 15:42
TAF CYUL 181439Z 1815/1912 02010KT P6SM FEW030 OVC190
FM181700 03010G20KT P6SM FEW030
BECMG 1823/1901 03008KT
FM190300 02008KT P6SM SCT060
RMK NXT FCST BY 181800Z


**********************************************
2018/08/18 15:42
TAF CYOW 181439Z 1815/1912 36010KT P6SM FEW020 SCT240
FM181900 02010KT P6SM BKN030
FM182300 35006KT P6SM FEW040
BECMG 1908/1910 04006KT
RMK NXT FCST BY 181800Z


**********************************************
2018/08/18 12:45
TAF CYMX 181141Z 1812/1912 35006KT P6SM SCT020 BKN210
TEMPO 1812/1813 BKN020
FM181600 04008KT P6SM SCT040
FM190000 VRB03KT P6SM FEW050
RMK NXT FCST BY 181800Z


**********************************************